createdAt,value
2022-08-04T00:01:23.751Z,90.20
2022-08-04T00:05:10.342Z,90.00
2022-08-04T00:08:58.133Z,89.60
2022-08-04T00:12:45.227Z,89.50
2022-08-04T00:16:34.817Z,89.10
2022-08-04T00:20:22.290Z,89.00
2022-08-04T00:24:11.774Z,88.80
2022-08-04T00:27:55.698Z,88.90
2022-08-04T00:31:57.001Z,89.00
2022-08-04T00:35:40.704Z,89.30
2022-08-04T00:39:25.361Z,89.60
2022-08-04T00:43:16.207Z,89.60
2022-08-04T00:47:08.920Z,89.90
2022-08-04T00:51:00.644Z,90.00
2022-08-04T00:55:11.261Z,90.00
2022-08-04T00:59:05.257Z,90.10
2022-08-04T01:03:02.999Z,90.30
2022-08-04T01:06:56.219Z,90.40
2022-08-04T01:10:47.913Z,90.60
2022-08-04T01:14:58.526Z,90.70
2022-08-04T01:18:53.689Z,90.70
2022-08-04T01:23:21.372Z,90.80
2022-08-04T01:27:10.774Z,90.80
2022-08-04T01:30:59.304Z,90.80
2022-08-04T01:34:46.756Z,90.80
2022-08-04T01:38:32.349Z,91.00
2022-08-04T01:42:31.427Z,91.00
2022-08-04T01:46:17.923Z,91.00
2022-08-04T01:50:06.220Z,91.10
2022-08-04T01:53:48.769Z,91.10
2022-08-04T01:57:37.953Z,91.10
2022-08-04T02:01:23.036Z,91.00
2022-08-04T02:05:06.568Z,90.90
2022-08-04T02:08:56.049Z,90.90
2022-08-04T02:12:54.589Z,90.90
2022-08-04T02:16:52.478Z,90.80
2022-08-04T02:20:38.805Z,90.60
2022-08-04T02:24:27.455Z,90.40
2022-08-04T02:28:23.157Z,90.30
2022-08-04T02:32:12.816Z,90.30
2022-08-04T02:36:02.394Z,90.20
2022-08-04T02:39:48.807Z,90.10
2022-08-04T02:43:52.211Z,90.00
2022-08-04T02:48:25.196Z,90.10
2022-08-04T02:51:46.378Z,90.20
2022-08-04T02:55:31.009Z,90.20
2022-08-04T02:59:15.310Z,90.30
2022-08-04T03:03:13.161Z,90.30
2022-08-04T03:07:41.705Z,90.30
2022-08-04T03:11:38.918Z,90.30
2022-08-04T03:15:41.645Z,90.40
2022-08-04T03:20:02.180Z,90.40
2022-08-04T03:24:23.697Z,90.40
2022-08-04T03:29:03.702Z,90.40
2022-08-04T03:33:23.384Z,90.50
2022-08-04T03:37:38.182Z,90.50
2022-08-04T03:41:51.915Z,90.40
2022-08-04T03:46:27.629Z,90.30
2022-08-04T03:50:42.835Z,90.10
2022-08-04T03:55:23.055Z,90.20
2022-08-04T03:59:28.017Z,90.20
2022-08-04T04:03:40.436Z,90.20
2022-08-04T04:08:18.718Z,90.20
2022-08-04T04:12:36.337Z,90.30
2022-08-04T04:16:30.043Z,90.20
2022-08-04T04:20:34.340Z,90.20
2022-08-04T04:24:40.217Z,90.20
2022-08-04T04:28:47.129Z,90.00
2022-08-04T04:32:39.808Z,89.90
2022-08-04T04:36:33.079Z,89.70
2022-08-04T04:40:28.668Z,89.30
2022-08-04T04:44:34.226Z,89.20
2022-08-04T04:48:31.384Z,88.50
2022-08-04T04:52:23.775Z,88.20
2022-08-04T04:56:16.255Z,88.20
2022-08-04T05:00:03.396Z,88.20
2022-08-04T05:04:03.763Z,88.40
2022-08-04T05:08:44.929Z,88.40
2022-08-04T05:14:30.898Z,88.10
2022-08-04T05:16:49.975Z,87.80
2022-08-04T05:20:45.453Z,87.90
2022-08-04T05:24:30.271Z,88.10
2022-08-04T05:28:21.617Z,87.80
2022-08-04T05:32:11.261Z,87.70
2022-08-04T05:36:20.766Z,87.20
2022-08-04T05:40:06.111Z,86.80
2022-08-04T05:43:51.075Z,86.90
2022-08-04T05:47:36.087Z,86.30
2022-08-04T05:51:19.903Z,85.80
2022-08-04T05:55:03.730Z,85.70
2022-08-04T05:58:48.141Z,84.90
2022-08-04T06:02:31.986Z,84.60
2022-08-04T06:06:18.632Z,83.90
2022-08-04T06:10:01.891Z,83.50
2022-08-04T06:13:51.030Z,83.70
2022-08-04T06:19:56.991Z,86.20
2022-08-04T06:21:44.481Z,87.40
2022-08-04T06:25:32.160Z,87.40
2022-08-04T06:29:26.596Z,88.20
2022-08-04T06:33:24.591Z,89.50
2022-08-04T06:37:09.550Z,87.50
2022-08-04T06:40:53.815Z,87.70
2022-08-04T06:44:37.122Z,85.20
2022-08-04T06:48:20.995Z,84.70
2022-08-04T06:52:06.529Z,82.70
2022-08-04T06:55:52.584Z,81.40
2022-08-04T06:59:35.685Z,87.10
2022-08-04T07:03:21.565Z,87.50
2022-08-04T07:07:04.371Z,86.30
2022-08-04T07:10:47.557Z,83.50
2022-08-04T07:14:36.143Z,82.60
2022-08-04T07:18:19.113Z,80.90
2022-08-04T07:22:18.828Z,83.20
2022-08-04T07:26:13.036Z,82.70
2022-08-04T07:29:58.337Z,80.70
2022-08-04T07:33:43.705Z,82.00
2022-08-04T07:37:38.856Z,81.70
2022-08-04T07:41:40.298Z,80.80
2022-08-04T07:45:25.598Z,80.10
2022-08-04T07:49:08.735Z,78.30
2022-08-04T07:53:15.326Z,76.40
2022-08-04T07:56:55.489Z,73.70
2022-08-04T08:00:40.759Z,73.70
2022-08-04T08:04:24.620Z,75.70
2022-08-04T08:08:08.595Z,76.90
2022-08-04T08:12:37.904Z,76.20
2022-08-04T08:15:58.680Z,75.80
2022-08-04T08:19:41.696Z,75.10
2022-08-04T08:23:25.340Z,73.60
2022-08-04T08:27:08.477Z,73.90
2022-08-04T08:30:52.749Z,73.90
2022-08-04T08:34:39.037Z,71.80
2022-08-04T08:38:28.623Z,70.80
2022-08-04T08:42:37.658Z,70.90
2022-08-04T08:46:50.068Z,71.10
2022-08-04T08:50:54.291Z,70.40
2022-08-04T08:54:57.797Z,70.30
2022-08-04T08:58:52.692Z,71.40
2022-08-04T09:03:09.503Z,70.20
2022-08-04T09:07:19.764Z,71.30
2022-08-04T09:11:11.166Z,70.60
2022-08-04T09:15:00.466Z,69.00
2022-08-04T09:18:49.213Z,69.40
2022-08-04T09:22:42.793Z,69.70
2022-08-04T09:26:35.722Z,69.40
2022-08-04T09:30:23.021Z,70.80
2022-08-04T09:34:15.358Z,70.50
2022-08-04T09:38:03.445Z,70.40
2022-08-04T09:42:00.996Z,70.90
2022-08-04T09:45:51.635Z,70.30
2022-08-04T09:49:41.191Z,70.80
2022-08-04T09:53:51.328Z,69.90
2022-08-04T09:57:46.180Z,70.10
2022-08-04T10:01:32.024Z,69.00
2022-08-04T10:05:18.111Z,69.80
2022-08-04T10:09:17.807Z,69.60
2022-08-04T10:13:25.391Z,68.50
2022-08-04T10:17:23.284Z,68.90
2022-08-04T10:21:15.657Z,68.10
2022-08-04T10:26:05.008Z,69.00
2022-08-04T10:29:15.574Z,67.90
2022-08-04T10:33:05.208Z,67.10
2022-08-04T10:36:57.666Z,67.60
2022-08-04T10:40:46.690Z,66.00
2022-08-04T10:44:42.051Z,67.20
2022-08-04T10:48:35.326Z,66.50
2022-08-04T10:52:25.923Z,66.20
2022-08-04T10:56:18.866Z,65.60
2022-08-04T11:00:05.067Z,63.60
2022-08-04T11:03:55.751Z,64.30
2022-08-04T11:07:40.321Z,63.70
2022-08-04T11:11:29.798Z,63.00
2022-08-04T11:15:16.710Z,62.80
2022-08-04T11:19:16.431Z,63.40
2022-08-04T11:23:07.211Z,63.90
2022-08-04T11:26:57.481Z,63.70
2022-08-04T11:30:48.677Z,63.80
2022-08-04T11:34:35.413Z,63.30
2022-08-04T11:38:24.164Z,62.60
2022-08-04T11:42:21.351Z,63.90
2022-08-04T11:46:10.537Z,64.30
2022-08-04T11:49:59.592Z,63.40
2022-08-04T11:53:43.728Z,62.80
2022-08-04T11:57:36.037Z,62.20
2022-08-04T12:01:26.670Z,62.40
2022-08-04T12:05:35.277Z,61.90
2022-08-04T12:09:21.445Z,61.10
2022-08-04T12:13:23.619Z,61.40
2022-08-04T12:17:08.561Z,62.50
2022-08-04T12:20:56.318Z,62.40
2022-08-04T12:24:45.904Z,61.90
2022-08-04T12:28:52.429Z,61.90
2022-08-04T12:32:48.323Z,61.90
2022-08-04T12:36:41.400Z,61.80
2022-08-04T12:40:30.005Z,61.20
2022-08-04T12:44:36.364Z,61.00
2022-08-04T12:48:21.600Z,59.90
2022-08-04T12:52:09.382Z,59.70
2022-08-04T12:56:01.341Z,59.60
2022-08-04T12:59:57.086Z,59.60
2022-08-04T13:03:43.747Z,59.70
2022-08-04T13:07:29.841Z,59.90
2022-08-04T13:11:13.234Z,59.60
2022-08-04T13:15:10.470Z,59.10
2022-08-04T13:19:05.323Z,59.00
2022-08-04T13:22:48.044Z,59.00
2022-08-04T13:26:42.974Z,58.50
2022-08-04T13:30:38.113Z,59.00
2022-08-04T13:34:21.128Z,58.60
2022-08-04T13:38:04.928Z,58.60
2022-08-04T13:41:56.965Z,58.90
2022-08-04T13:45:43.296Z,58.30
2022-08-04T13:49:38.001Z,58.80
2022-08-04T13:53:31.274Z,58.20
2022-08-04T13:57:19.411Z,58.30
2022-08-04T14:01:06.918Z,58.70
2022-08-04T14:04:57.146Z,58.50
2022-08-04T14:08:51.470Z,58.70
2022-08-04T14:12:45.399Z,57.90
2022-08-04T14:16:31.097Z,58.50
2022-08-04T14:20:13.670Z,57.60
2022-08-04T14:23:58.257Z,58.30
2022-08-04T14:27:46.553Z,57.70
2022-08-04T14:31:31.169Z,58.00
2022-08-04T14:35:14.412Z,57.60
2022-08-04T14:39:00.446Z,57.60
2022-08-04T14:42:54.649Z,57.30
2022-08-04T14:46:52.522Z,56.70
2022-08-04T14:50:38.838Z,56.80
2022-08-04T14:54:28.265Z,56.40
2022-08-04T14:58:34.553Z,56.30
2022-08-04T15:02:23.793Z,56.60
2022-08-04T15:06:16.156Z,57.20
2022-08-04T15:10:01.337Z,56.80
2022-08-04T15:13:43.993Z,56.40
2022-08-04T15:17:30.519Z,56.10
2022-08-04T15:21:15.514Z,55.90
2022-08-04T15:24:58.124Z,55.50
2022-08-04T15:28:43.348Z,55.50
2022-08-04T15:32:29.438Z,55.10
2022-08-04T15:36:16.380Z,55.10
2022-08-04T15:40:05.234Z,55.10
2022-08-04T15:43:57.115Z,54.50
2022-08-04T15:47:41.768Z,55.30
2022-08-04T15:51:34.518Z,54.80
2022-08-04T15:55:35.602Z,54.80
2022-08-04T15:59:59.965Z,54.20
2022-08-04T16:03:59.572Z,53.90
2022-08-04T16:07:58.256Z,53.40
2022-08-04T16:11:41.226Z,53.90
2022-08-04T16:15:38.781Z,53.90
2022-08-04T16:19:35.551Z,53.70
2022-08-04T16:23:58.096Z,53.20
2022-08-04T16:27:45.315Z,52.80
2022-08-04T16:31:27.877Z,53.30
2022-08-04T16:35:27.932Z,53.20
2022-08-04T16:39:20.034Z,52.90
2022-08-04T16:43:05.063Z,52.20
2022-08-04T16:47:08.329Z,52.50
2022-08-04T16:51:03.225Z,51.50
2022-08-04T16:54:47.986Z,51.50
2022-08-04T16:58:32.608Z,50.50
2022-08-04T17:02:15.752Z,50.50
2022-08-04T17:06:11.618Z,49.00
2022-08-04T17:09:55.365Z,49.00
2022-08-04T17:14:02.564Z,49.10
2022-08-04T17:18:05.605Z,49.10
2022-08-04T17:21:46.958Z,49.20
2022-08-04T17:25:52.132Z,48.80
2022-08-04T17:29:43.785Z,48.40
2022-08-04T17:37:40.706Z,46.90
2022-08-04T17:41:30.559Z,47.50
2022-08-04T17:49:25.612Z,47.30
2022-08-04T17:53:13.366Z,46.70
2022-08-04T17:56:58.365Z,46.70
2022-08-04T18:00:41.597Z,47.00
2022-08-04T18:04:33.801Z,47.00
2022-08-04T18:08:39.248Z,47.20
2022-08-04T18:12:24.398Z,47.70
2022-08-04T18:16:14.579Z,48.90
2022-08-04T18:20:07.814Z,49.00
2022-08-04T18:23:52.489Z,49.60
2022-08-04T18:27:35.383Z,50.50
2022-08-04T18:31:18.429Z,51.30
2022-08-04T18:35:05.670Z,51.90
2022-08-04T18:38:55.893Z,52.10
2022-08-04T18:42:42.042Z,54.70
2022-08-04T18:46:27.185Z,56.40
2022-08-04T18:50:59.982Z,58.70
2022-08-04T18:54:14.380Z,58.10
2022-08-04T18:57:58.945Z,58.40
2022-08-04T19:02:17.537Z,58.60
2022-08-04T19:05:48.593Z,58.60
2022-08-04T19:09:51.184Z,59.10
2022-08-04T19:13:35.245Z,59.20
2022-08-04T19:17:18.165Z,59.60
2022-08-04T19:22:01.379Z,59.40
2022-08-04T19:25:58.913Z,59.60
2022-08-04T19:33:58.814Z,59.90
2022-08-04T19:37:58.032Z,60.00
2022-08-04T19:42:04.821Z,59.70
2022-08-04T19:45:43.729Z,59.60
2022-08-04T19:50:05.114Z,59.80
2022-08-04T19:53:37.113Z,60.00
2022-08-04T19:57:22.758Z,60.40
2022-08-04T20:01:31.424Z,60.40
2022-08-04T20:05:18.042Z,60.00
2022-08-04T20:09:25.301Z,60.50
2022-08-04T20:13:10.875Z,60.90
2022-08-04T20:16:53.390Z,61.60
2022-08-04T20:20:36.754Z,62.80
2022-08-04T20:24:38.680Z,62.70
2022-08-04T20:28:36.454Z,63.00
2022-08-04T20:32:22.184Z,63.30
2022-08-04T20:36:06.725Z,63.70
2022-08-04T20:39:54.810Z,64.10
2022-08-04T20:43:39.611Z,64.80
2022-08-04T20:47:26.114Z,64.40
2022-08-04T20:51:12.927Z,65.20
2022-08-04T20:54:58.448Z,64.50
2022-08-04T20:58:42.801Z,65.10
2022-08-04T21:02:25.802Z,64.00
2022-08-04T21:06:10.364Z,63.90
2022-08-04T21:09:53.507Z,64.60
2022-08-04T21:13:51.848Z,64.30
2022-08-04T21:17:59.019Z,64.50
2022-08-04T21:21:41.171Z,64.40
2022-08-04T21:25:24.832Z,64.50
2022-08-04T21:29:07.881Z,63.90
2022-08-04T21:32:53.382Z,63.40
2022-08-04T21:36:37.965Z,63.60
2022-08-04T21:40:32.808Z,63.80
2022-08-04T21:44:19.087Z,63.40
2022-08-04T21:48:03.196Z,62.70
2022-08-04T21:51:58.025Z,62.70
2022-08-04T21:56:04.366Z,62.40
2022-08-04T21:59:45.984Z,62.50
2022-08-04T22:03:52.681Z,61.90
2022-08-04T22:07:50.437Z,62.30
2022-08-04T22:11:43.929Z,62.80
2022-08-04T22:16:05.233Z,62.50
2022-08-04T22:19:50.027Z,62.50
2022-08-04T22:23:44.997Z,62.30
2022-08-04T22:27:47.711Z,62.80
2022-08-04T22:31:56.224Z,62.30
2022-08-04T22:52:56.368Z,61.30
2022-08-04T22:56:39.358Z,62.40
2022-08-04T23:00:28.645Z,63.40
2022-08-04T23:04:11.324Z,64.40
2022-08-04T23:07:55.106Z,63.70
2022-08-04T23:11:43.227Z,64.30
2022-08-04T23:15:26.661Z,66.20
2022-08-04T23:19:16.440Z,65.70
2022-08-04T23:23:00.342Z,66.40
2022-08-04T23:26:57.562Z,67.10
2022-08-04T23:30:40.884Z,67.70
2022-08-04T23:34:29.212Z,68.30
2022-08-04T23:38:31.799Z,68.80
2022-08-04T23:42:20.929Z,69.60
2022-08-04T23:46:08.191Z,69.60
2022-08-04T23:49:51.079Z,69.40
2022-08-04T23:54:01.630Z,69.30
2022-08-04T23:58:06.216Z,70.00
